createdAt,value
2019-02-14T00:01:12.994Z,83.00
2019-02-14T00:04:18.076Z,82.20
2019-02-14T00:07:23.244Z,82.10
2019-02-14T00:10:28.293Z,82.10
2019-02-14T00:13:33.339Z,82.20
2019-02-14T00:16:38.469Z,82.20
2019-02-14T00:19:43.520Z,82.20
2019-02-14T00:22:48.579Z,82.40
2019-02-14T00:25:53.540Z,82.70
2019-02-14T00:28:58.671Z,82.90
2019-02-14T00:32:03.795Z,83.00
2019-02-14T00:35:09.070Z,83.00
2019-02-14T00:38:14.050Z,83.00
2019-02-14T00:41:19.088Z,83.00
2019-02-14T00:44:24.056Z,83.10
2019-02-14T00:47:29.114Z,83.10
2019-02-14T00:50:34.151Z,83.20
2019-02-14T00:53:39.380Z,83.20
2019-02-14T00:56:44.415Z,83.20
2019-02-14T00:59:49.544Z,83.50
2019-02-14T01:02:54.535Z,84.00
2019-02-14T01:05:59.565Z,84.20
2019-02-14T01:09:05.703Z,84.30
2019-02-14T01:12:11.127Z,84.40
2019-02-14T01:15:17.836Z,84.40
2019-02-14T01:18:22.947Z,84.40
2019-02-14T01:21:28.049Z,84.50
2019-02-14T01:24:33.179Z,84.50
2019-02-14T01:27:38.147Z,84.70
2019-02-14T01:30:43.263Z,84.70
2019-02-14T01:33:48.305Z,84.80
2019-02-14T01:36:53.262Z,84.80
2019-02-14T01:39:58.385Z,85.00
2019-02-14T01:43:03.434Z,85.10
2019-02-14T01:46:08.458Z,85.20
2019-02-14T01:49:13.512Z,85.30
2019-02-14T01:52:18.553Z,85.40
2019-02-14T01:55:23.680Z,85.60
2019-02-14T01:58:28.739Z,85.50
2019-02-14T02:01:33.851Z,85.50
2019-02-14T02:04:38.815Z,85.30
2019-02-14T02:07:43.775Z,85.20
2019-02-14T02:10:48.819Z,85.30
2019-02-14T02:13:53.986Z,85.30
2019-02-14T02:16:58.923Z,85.40
2019-02-14T02:20:04.258Z,85.30
2019-02-14T02:23:09.310Z,85.30
2019-02-14T02:26:14.401Z,85.30
2019-02-14T02:29:19.368Z,85.30
2019-02-14T02:32:24.420Z,85.20
2019-02-14T02:35:29.454Z,85.30
2019-02-14T02:38:34.560Z,85.30
2019-02-14T02:41:39.604Z,85.50
2019-02-14T02:44:44.634Z,85.60
2019-02-14T02:47:49.670Z,85.70
2019-02-14T02:50:54.707Z,85.90
2019-02-14T02:53:59.762Z,86.00
2019-02-14T02:57:04.859Z,86.00
2019-02-14T03:00:13.181Z,86.10
2019-02-14T03:03:18.136Z,86.20
2019-02-14T03:06:23.163Z,86.20
2019-02-14T03:09:28.284Z,86.20
2019-02-14T03:12:33.456Z,86.10
2019-02-14T03:15:38.439Z,86.10
2019-02-14T03:18:43.479Z,86.30
2019-02-14T03:21:48.649Z,86.40
2019-02-14T03:24:53.619Z,86.40
2019-02-14T03:27:58.563Z,86.60
2019-02-14T03:31:03.619Z,86.70
2019-02-14T03:34:08.652Z,86.90
2019-02-14T03:37:13.671Z,87.00
2019-02-14T03:40:18.702Z,87.00
2019-02-14T03:43:23.787Z,87.00
2019-02-14T03:46:28.830Z,87.00
2019-02-14T03:49:33.808Z,86.90
2019-02-14T03:52:38.860Z,86.80
2019-02-14T03:55:44.319Z,86.80
2019-02-14T03:58:49.415Z,86.80
2019-02-14T04:01:54.543Z,86.90
2019-02-14T04:04:59.515Z,87.00
2019-02-14T04:08:04.665Z,86.90
2019-02-14T04:11:09.694Z,86.70
2019-02-14T04:14:14.753Z,86.80
2019-02-14T04:17:19.863Z,86.60
2019-02-14T04:20:24.983Z,86.50
2019-02-14T04:23:29.955Z,86.20
2019-02-14T04:26:34.995Z,86.00
2019-02-14T04:29:39.945Z,85.90
2019-02-14T04:32:45.008Z,85.90
2019-02-14T04:35:50.006Z,85.80
2019-02-14T04:38:54.983Z,85.80
2019-02-14T04:42:00.031Z,85.60
2019-02-14T04:45:05.552Z,85.70
2019-02-14T04:48:10.595Z,85.80
2019-02-14T04:51:15.720Z,85.70
2019-02-14T04:54:20.755Z,85.80
2019-02-14T04:57:25.723Z,86.00
2019-02-14T05:00:30.828Z,86.10
2019-02-14T05:03:35.876Z,86.30
2019-02-14T05:06:44.330Z,86.40
2019-02-14T05:09:47.661Z,86.30
2019-02-14T05:12:52.639Z,86.50
2019-02-14T05:15:57.631Z,86.40
2019-02-14T05:19:02.609Z,86.40
2019-02-14T05:22:07.743Z,86.40
2019-02-14T05:25:12.931Z,86.50
2019-02-14T05:28:17.979Z,86.50
2019-02-14T05:31:23.007Z,86.60
2019-02-14T05:34:28.127Z,86.50
2019-02-14T05:37:33.090Z,86.60
2019-02-14T05:40:38.132Z,86.60
2019-02-14T05:43:43.275Z,86.50
2019-02-14T05:46:48.392Z,86.40
2019-02-14T05:49:53.444Z,86.20
2019-02-14T05:52:58.568Z,86.10
2019-02-14T05:56:03.681Z,86.10
2019-02-14T05:59:08.656Z,86.10
2019-02-14T06:02:14.728Z,85.90
2019-02-14T06:05:19.696Z,85.80
2019-02-14T06:08:24.679Z,85.60
2019-02-14T06:11:29.712Z,85.40
2019-02-14T06:14:34.693Z,85.30
2019-02-14T06:17:39.823Z,85.20
2019-02-14T06:20:44.883Z,85.00
2019-02-14T06:23:49.860Z,85.00
2019-02-14T06:26:54.856Z,84.90
2019-02-14T06:29:59.882Z,84.80
2019-02-14T06:33:05.194Z,84.70
2019-02-14T06:36:10.176Z,84.90
2019-02-14T06:39:15.223Z,85.00
2019-02-14T06:42:20.210Z,85.10
2019-02-14T06:45:25.280Z,85.30
2019-02-14T06:48:30.339Z,85.50
2019-02-14T06:51:35.388Z,85.80
2019-02-14T06:54:40.435Z,85.90
2019-02-14T06:57:45.471Z,86.10
2019-02-14T07:00:50.507Z,86.20
2019-02-14T07:03:55.531Z,86.40
2019-02-14T07:07:00.634Z,86.30
2019-02-14T07:10:06.146Z,86.40
2019-02-14T07:13:11.222Z,86.30
2019-02-14T07:16:16.275Z,87.00
2019-02-14T07:19:21.405Z,85.90
2019-02-14T07:22:26.538Z,85.70
2019-02-14T07:25:31.650Z,85.70
2019-02-14T07:28:36.620Z,85.70
2019-02-14T07:31:41.730Z,85.70
2019-02-14T07:34:46.813Z,85.50
2019-02-14T07:37:51.858Z,85.40
2019-02-14T07:40:57.064Z,85.10
2019-02-14T07:44:02.247Z,85.10
2019-02-14T07:47:07.377Z,85.00
2019-02-14T07:50:12.525Z,85.40
2019-02-14T07:53:17.632Z,84.50
2019-02-14T07:56:22.654Z,84.20
2019-02-14T07:59:27.779Z,84.00
2019-02-14T08:02:32.907Z,83.70
2019-02-14T08:05:37.951Z,83.40
2019-02-14T08:08:44.221Z,82.80
2019-02-14T08:11:49.323Z,82.70
2019-02-14T08:14:54.387Z,82.50
2019-02-14T08:17:59.416Z,82.30
2019-02-14T08:21:04.464Z,82.00
2019-02-14T08:24:09.568Z,81.70
2019-02-14T08:27:14.624Z,81.00
2019-02-14T08:30:19.675Z,80.90
2019-02-14T08:33:24.724Z,80.60
2019-02-14T08:36:29.771Z,80.60
2019-02-14T08:39:35.856Z,80.50
2019-02-14T08:42:40.925Z,80.50
2019-02-14T08:45:46.034Z,80.50
2019-02-14T08:48:51.163Z,80.50
2019-02-14T08:51:56.480Z,80.60
2019-02-14T08:55:01.532Z,80.30
2019-02-14T08:58:06.648Z,80.00
2019-02-14T09:01:11.694Z,79.90
2019-02-14T09:04:16.655Z,79.90
2019-02-14T09:07:21.700Z,79.90
2019-02-14T09:10:26.824Z,79.40
2019-02-14T09:13:31.881Z,79.90
2019-02-14T09:16:36.852Z,78.60
2019-02-14T09:19:41.989Z,78.30
2019-02-14T09:22:47.025Z,77.90
2019-02-14T09:25:52.076Z,78.40
2019-02-14T09:28:57.051Z,77.00
2019-02-14T09:32:02.101Z,76.30
2019-02-14T09:35:07.451Z,75.80
2019-02-14T09:38:12.555Z,75.10
2019-02-14T09:41:17.685Z,74.80
2019-02-14T09:44:22.750Z,73.80
2019-02-14T09:47:27.936Z,73.70
2019-02-14T09:50:33.102Z,73.20
2019-02-14T09:53:38.233Z,73.00
2019-02-14T09:56:43.290Z,72.70
2019-02-14T09:59:48.265Z,72.60
2019-02-14T10:02:53.306Z,72.30
2019-02-14T10:05:58.442Z,72.00
2019-02-14T10:09:05.750Z,71.90
2019-02-14T10:12:10.980Z,71.60
2019-02-14T10:15:16.232Z,71.10
2019-02-14T10:18:21.335Z,70.70
2019-02-14T10:21:26.459Z,70.40
2019-02-14T10:24:31.562Z,69.70
2019-02-14T10:27:36.675Z,69.50
2019-02-14T10:30:41.776Z,70.00
2019-02-14T10:33:46.819Z,69.00
2019-02-14T10:36:51.867Z,68.80
2019-02-14T10:39:56.901Z,68.40
2019-02-14T10:43:01.867Z,68.60
2019-02-14T10:46:06.963Z,68.50
2019-02-14T10:49:12.171Z,68.00
2019-02-14T10:52:17.209Z,67.90
2019-02-14T10:55:22.334Z,68.60
2019-02-14T10:58:27.458Z,67.60
2019-02-14T11:01:32.516Z,67.30
2019-02-14T11:04:37.647Z,67.40
2019-02-14T11:07:42.785Z,67.30
2019-02-14T11:10:47.975Z,67.00
2019-02-14T11:13:53.030Z,67.20
2019-02-14T11:16:58.156Z,67.00
2019-02-14T11:20:03.267Z,66.60
2019-02-14T11:23:08.347Z,66.10
2019-02-14T11:26:13.581Z,65.70
2019-02-14T11:29:18.723Z,65.90
2019-02-14T11:32:23.756Z,66.00
2019-02-14T11:35:28.870Z,65.20
2019-02-14T11:38:40.379Z,64.70
2019-02-14T11:41:40.688Z,64.60
2019-02-14T11:44:45.834Z,64.40
2019-02-14T11:47:50.966Z,64.40
2019-02-14T11:50:56.024Z,64.00
2019-02-14T11:54:01.055Z,64.10
2019-02-14T11:57:06.035Z,64.30
2019-02-14T12:00:14.689Z,64.20
2019-02-14T12:03:19.671Z,64.40
2019-02-14T12:06:24.710Z,63.60
2019-02-14T12:09:29.777Z,63.80
2019-02-14T12:12:34.831Z,63.90
2019-02-14T12:15:39.803Z,63.60
2019-02-14T12:18:44.863Z,63.50
2019-02-14T12:21:49.902Z,62.90
2019-02-14T12:24:57.702Z,62.70
2019-02-14T12:28:02.800Z,62.20
2019-02-14T12:31:07.814Z,61.50
2019-02-14T12:34:12.919Z,60.10
2019-02-14T12:37:19.988Z,59.20
2019-02-14T12:40:25.103Z,58.50
2019-02-14T12:43:30.140Z,58.10
2019-02-14T12:46:35.232Z,57.00
2019-02-14T12:49:40.344Z,56.20
2019-02-14T12:52:45.319Z,55.90
2019-02-14T12:55:50.458Z,54.80
2019-02-14T12:58:55.525Z,54.70
2019-02-14T13:02:00.503Z,55.00
2019-02-14T13:05:06.238Z,54.50
2019-02-14T13:08:11.293Z,54.70
2019-02-14T13:11:16.431Z,55.40
2019-02-14T13:14:21.487Z,54.90
2019-02-14T13:17:26.552Z,55.00
2019-02-14T13:20:31.533Z,55.80
2019-02-14T13:23:36.702Z,56.00
2019-02-14T13:26:41.691Z,56.10
2019-02-14T13:29:46.727Z,56.20
2019-02-14T13:32:51.848Z,56.30
2019-02-14T13:35:57.045Z,56.30
2019-02-14T13:39:02.149Z,56.50
2019-02-14T13:42:07.364Z,56.40
2019-02-14T13:45:13.956Z,56.20
2019-02-14T13:48:18.924Z,56.10
2019-02-14T13:51:23.996Z,56.20
2019-02-14T13:54:28.967Z,56.20
2019-02-14T13:57:34.092Z,57.00
2019-02-14T14:00:39.054Z,56.00
2019-02-14T14:03:44.096Z,55.90
2019-02-14T14:06:49.052Z,56.20
2019-02-14T14:09:54.039Z,56.00
2019-02-14T14:12:59.157Z,55.90
2019-02-14T14:16:04.200Z,55.50
2019-02-14T14:19:10.071Z,55.50
2019-02-14T14:22:15.121Z,55.30
2019-02-14T14:25:20.193Z,55.20
2019-02-14T14:28:25.215Z,55.80
2019-02-14T14:31:30.313Z,55.10
2019-02-14T14:34:35.346Z,55.20
2019-02-14T14:37:40.485Z,55.70
2019-02-14T14:40:45.533Z,56.50
2019-02-14T14:44:08.040Z,55.90
2019-02-14T14:47:18.540Z,55.60
2019-02-14T14:50:23.644Z,55.40
2019-02-14T14:53:30.733Z,55.60
2019-02-14T14:56:35.690Z,53.90
2019-02-14T14:59:40.712Z,53.40
2019-02-14T15:02:45.697Z,52.80
2019-02-14T15:05:50.808Z,52.80
2019-02-14T15:08:55.889Z,53.10
2019-02-14T15:12:00.881Z,53.40
2019-02-14T15:15:06.156Z,53.80
2019-02-14T15:18:11.192Z,54.00
2019-02-14T15:21:16.161Z,55.20
2019-02-14T15:24:21.235Z,55.00
2019-02-14T15:27:26.280Z,55.20
2019-02-14T15:30:31.259Z,55.20
2019-02-14T15:33:36.249Z,55.20
2019-02-14T15:36:41.298Z,55.00
2019-02-14T15:39:46.326Z,55.00
2019-02-14T15:42:51.372Z,54.40
2019-02-14T15:45:56.319Z,54.00
2019-02-14T15:49:01.351Z,53.60
2019-02-14T15:52:07.737Z,53.90
2019-02-14T15:55:12.893Z,54.20
2019-02-14T15:58:17.939Z,55.10
2019-02-14T16:01:22.892Z,54.30
2019-02-14T16:04:28.908Z,54.30
2019-02-14T16:07:36.844Z,54.60
2019-02-14T16:10:41.588Z,55.10
2019-02-14T16:13:46.625Z,54.60
2019-02-14T16:16:51.616Z,54.80
2019-02-14T16:19:57.642Z,54.80
2019-02-14T16:23:04.202Z,54.80
2019-02-14T16:26:10.179Z,54.70
2019-02-14T16:29:15.211Z,54.80
2019-02-14T16:32:20.196Z,54.60
2019-02-14T16:35:25.152Z,54.30
2019-02-14T16:38:30.204Z,54.20
2019-02-14T16:41:35.263Z,54.30
2019-02-14T16:44:40.224Z,54.70
2019-02-14T16:47:45.186Z,55.50
2019-02-14T16:50:50.316Z,55.30
2019-02-14T16:53:55.332Z,55.50
2019-02-14T16:57:00.442Z,55.80
2019-02-14T17:00:06.670Z,55.90
2019-02-14T17:03:11.652Z,56.10
2019-02-14T17:06:16.697Z,56.20
2019-02-14T17:09:21.845Z,56.40
2019-02-14T17:12:27.433Z,57.20
2019-02-14T17:15:32.553Z,57.00
2019-02-14T17:18:37.534Z,57.60
2019-02-14T17:21:42.598Z,57.80
2019-02-14T17:24:47.560Z,58.20
2019-02-14T17:27:52.544Z,58.40
2019-02-14T17:30:57.591Z,58.70
2019-02-14T17:34:02.623Z,59.00
2019-02-14T17:37:07.668Z,59.40
2019-02-14T17:40:12.763Z,59.80
2019-02-14T17:43:17.888Z,60.10
2019-02-14T17:46:22.855Z,60.60
2019-02-14T17:49:27.906Z,61.00
2019-02-14T17:52:32.931Z,61.70
2019-02-14T17:55:39.377Z,62.00
2019-02-14T17:58:44.465Z,62.60
2019-02-14T18:01:49.756Z,63.00
2019-02-14T18:04:54.760Z,63.40
2019-02-14T18:07:59.747Z,63.80
2019-02-14T18:11:04.804Z,64.10
2019-02-14T18:14:09.862Z,64.50
2019-02-14T18:17:14.832Z,64.90
2019-02-14T18:20:19.876Z,65.40
2019-02-14T18:23:24.996Z,65.60
2019-02-14T18:26:30.087Z,66.00
2019-02-14T18:29:35.225Z,66.40
2019-02-14T18:32:40.320Z,66.70
2019-02-14T18:35:45.636Z,67.20
2019-02-14T18:38:50.676Z,67.50
2019-02-14T18:41:55.802Z,67.90
2019-02-14T18:45:00.838Z,68.00
2019-02-14T18:48:05.956Z,68.20
2019-02-14T18:51:11.167Z,68.10
2019-02-14T18:54:16.212Z,67.70
2019-02-14T18:57:21.295Z,67.70
2019-02-14T19:00:26.316Z,67.90
2019-02-14T19:03:31.500Z,68.20
2019-02-14T19:06:36.521Z,68.20
2019-02-14T19:09:41.574Z,68.40
2019-02-14T19:12:46.713Z,69.00
2019-02-14T19:15:51.675Z,69.50
2019-02-14T19:18:58.664Z,70.00
2019-02-14T19:22:03.472Z,70.20
2019-02-14T19:25:08.592Z,70.40
2019-02-14T19:28:13.717Z,70.50
2019-02-14T19:31:18.784Z,70.90
2019-02-14T19:34:23.821Z,71.30
2019-02-14T19:37:28.956Z,71.50
2019-02-14T19:40:33.972Z,71.30
2019-02-14T19:43:39.100Z,71.10
2019-02-14T19:46:44.248Z,71.10
2019-02-14T19:49:49.373Z,71.10
2019-02-14T19:52:54.358Z,72.00
2019-02-14T19:55:59.408Z,71.70
2019-02-14T19:59:04.458Z,72.10
2019-02-14T20:02:09.579Z,72.20
2019-02-14T20:05:14.646Z,72.40
2019-02-14T20:08:19.701Z,72.70
2019-02-14T20:11:24.761Z,73.60
2019-02-14T20:14:29.808Z,73.20
2019-02-14T20:17:34.869Z,73.60
2019-02-14T20:20:39.935Z,73.90
2019-02-14T20:23:45.043Z,74.10
2019-02-14T20:26:50.015Z,74.30
2019-02-14T20:29:55.044Z,74.50
2019-02-14T20:33:04.765Z,74.50
2019-02-14T20:36:06.755Z,74.50
2019-02-14T20:39:11.972Z,74.90
2019-02-14T20:42:17.159Z,75.20
2019-02-14T20:45:22.376Z,75.20
2019-02-14T20:48:27.444Z,75.50
2019-02-14T20:51:38.567Z,75.80
2019-02-14T20:54:39.389Z,75.90
2019-02-14T20:57:45.100Z,76.10
2019-02-14T21:00:50.351Z,76.30
2019-02-14T21:03:55.393Z,76.60
2019-02-14T21:07:00.439Z,76.70
2019-02-14T21:10:05.597Z,77.00
2019-02-14T21:13:10.660Z,77.40
2019-02-14T21:16:15.824Z,77.50
2019-02-14T21:19:21.037Z,77.60
2019-02-14T21:22:26.262Z,77.80
2019-02-14T21:25:31.480Z,78.10
2019-02-14T21:28:36.564Z,78.40
2019-02-14T21:31:41.951Z,78.60
2019-02-14T21:34:46.982Z,78.80
2019-02-14T21:37:52.164Z,78.90
2019-02-14T21:40:57.363Z,79.00
2019-02-14T21:44:02.483Z,78.90
2019-02-14T21:47:07.677Z,79.00
2019-02-14T21:50:12.953Z,79.00
2019-02-14T21:53:18.067Z,79.10
2019-02-14T21:56:23.097Z,79.40
2019-02-14T21:59:28.235Z,79.50
2019-02-14T22:02:33.345Z,79.30
2019-02-14T22:05:38.483Z,79.40
2019-02-14T22:08:43.646Z,79.50
2019-02-14T22:11:48.709Z,79.30
2019-02-14T22:14:55.808Z,79.60
2019-02-14T22:18:00.944Z,79.80
2019-02-14T22:21:06.074Z,80.00
2019-02-14T22:24:12.501Z,80.10
2019-02-14T22:27:17.679Z,80.10
2019-02-14T22:30:22.803Z,80.00
2019-02-14T22:33:27.860Z,80.00
2019-02-14T22:36:32.941Z,80.10
2019-02-14T22:39:37.987Z,80.10
2019-02-14T22:42:46.983Z,80.20
2019-02-14T22:45:49.885Z,80.10
2019-02-14T22:48:55.018Z,80.00
2019-02-14T22:51:59.975Z,80.00
2019-02-14T22:55:05.301Z,79.90
2019-02-14T22:58:10.276Z,80.00
2019-02-14T23:01:15.574Z,80.00
2019-02-14T23:04:20.551Z,79.50
2019-02-14T23:07:25.684Z,79.30
2019-02-14T23:10:30.814Z,79.00
2019-02-14T23:13:35.959Z,78.80
2019-02-14T23:16:41.103Z,78.60
2019-02-14T23:19:46.242Z,78.70
2019-02-14T23:22:51.275Z,78.70
2019-02-14T23:25:56.269Z,78.80
2019-02-14T23:29:01.329Z,78.80
2019-02-14T23:32:06.300Z,79.50
2019-02-14T23:35:11.422Z,78.70
2019-02-14T23:38:16.396Z,78.70
2019-02-14T23:41:21.354Z,78.50
2019-02-14T23:44:27.067Z,78.50
2019-02-14T23:47:32.059Z,78.50
2019-02-14T23:50:37.105Z,78.70
2019-02-14T23:53:42.163Z,79.00
2019-02-14T23:56:47.280Z,79.10
2019-02-14T23:59:52.340Z,79.10
